createdAt,value
2023-02-06T00:01:26.471Z,102040.56
2023-02-06T00:03:54.227Z,102022.97
2023-02-06T00:06:21.967Z,102035.44
2023-02-06T00:08:49.860Z,102047.63
2023-02-06T00:11:18.097Z,102043.84
2023-02-06T00:13:46.367Z,102015.28
2023-02-06T00:16:18.250Z,102045.16
2023-02-06T00:18:47.587Z,102042.44
2023-02-06T00:21:15.833Z,102048.41
2023-02-06T00:23:43.509Z,102034.56
2023-02-06T00:26:11.337Z,102039.44
2023-02-06T00:28:39.473Z,102038.59
2023-02-06T00:31:08.475Z,102048.09
2023-02-06T00:33:37.130Z,102040.72
2023-02-06T00:36:07.072Z,102053.47
2023-02-06T00:38:35.479Z,102054.63
2023-02-06T00:41:03.165Z,102057.28
2023-02-06T00:43:31.348Z,102061.38
2023-02-06T00:45:59.209Z,102070.56
2023-02-06T00:48:27.266Z,102064.03
2023-02-06T00:50:55.307Z,102067.03
2023-02-06T00:53:24.522Z,102061.03
2023-02-06T00:55:52.804Z,102065.38
2023-02-06T00:58:22.830Z,102068.09
2023-02-06T01:00:50.540Z,102071.06
2023-02-06T01:03:18.267Z,102067.75
2023-02-06T01:05:46.091Z,102068.66
2023-02-06T01:08:13.993Z,102072.22
2023-02-06T01:10:43.388Z,102075.44
2023-02-06T01:13:12.208Z,102071.06
2023-02-06T01:15:42.203Z,102072.66
2023-02-06T01:18:10.398Z,102080.25
2023-02-06T01:20:44.476Z,102081.03
2023-02-06T01:23:12.248Z,102081.59
2023-02-06T01:25:39.982Z,102075.88
2023-02-06T01:28:08.983Z,102092.16
2023-02-06T01:30:36.699Z,102092.94
2023-02-06T01:33:04.443Z,102095.34
2023-02-06T01:35:32.084Z,102086.88
2023-02-06T01:38:01.204Z,102084.75
2023-02-06T01:40:28.844Z,102085.25
2023-02-06T01:42:58.500Z,102083.63
2023-02-06T01:45:46.324Z,102083.06
2023-02-06T01:48:21.367Z,102080.34
2023-02-06T01:50:53.352Z,102077.38
2023-02-06T01:53:22.408Z,102078.75
2023-02-06T01:55:53.524Z,102068.97
2023-02-06T01:58:27.280Z,102060.59
2023-02-06T02:00:57.994Z,102063.63
2023-02-06T02:03:26.362Z,102070.94
2023-02-06T02:05:57.361Z,102046.16
2023-02-06T02:08:32.884Z,102066.25
2023-02-06T02:11:02.563Z,102063.84
2023-02-06T02:13:32.028Z,102066.25
2023-02-06T02:16:04.219Z,102066.00
2023-02-06T02:18:45.090Z,102063.78
2023-02-06T02:21:45.134Z,102059.66
2023-02-06T02:24:19.198Z,102075.41
2023-02-06T02:27:19.873Z,102080.44
2023-02-06T02:30:18.691Z,102075.03
2023-02-06T02:33:01.033Z,102067.97
2023-02-06T02:35:35.229Z,102081.94
2023-02-06T02:38:14.462Z,102070.81
2023-02-06T02:40:48.503Z,102066.72
2023-02-06T02:43:25.213Z,102057.97
2023-02-06T02:45:57.819Z,102061.19
2023-02-06T02:48:29.422Z,102055.06
2023-02-06T02:51:00.786Z,102056.16
2023-02-06T02:53:28.912Z,102057.50
2023-02-06T02:55:56.844Z,102056.44
2023-02-06T02:58:31.227Z,102069.44
2023-02-06T03:01:03.620Z,102055.91
2023-02-06T03:03:38.678Z,102057.50
2023-02-06T03:06:30.860Z,102061.28
2023-02-06T03:09:04.885Z,102064.78
2023-02-06T03:11:33.535Z,102076.44
2023-02-06T03:14:06.857Z,102067.25
2023-02-06T03:16:39.284Z,102080.03
2023-02-06T03:19:12.499Z,102078.34
2023-02-06T03:21:43.324Z,102077.53
2023-02-06T03:24:15.439Z,102072.63
2023-02-06T03:26:45.115Z,102069.06
2023-02-06T03:29:16.466Z,102067.19
2023-02-06T03:31:49.825Z,102070.94
2023-02-06T03:34:23.906Z,102070.47
2023-02-06T03:36:54.236Z,102064.59
2023-02-06T03:39:23.274Z,102060.25
2023-02-06T03:41:53.154Z,102058.94
2023-02-06T03:44:25.657Z,102060.28
2023-02-06T03:46:55.180Z,102054.88
2023-02-06T03:49:25.668Z,102067.16
2023-02-06T03:51:58.356Z,102075.19
2023-02-06T03:54:28.471Z,102078.13
2023-02-06T03:56:58.787Z,102079.44
2023-02-06T03:59:27.188Z,102073.72
2023-02-06T04:01:58.236Z,102058.41
2023-02-06T04:04:29.758Z,102049.38
2023-02-06T04:07:02.748Z,102069.78
2023-02-06T04:09:30.613Z,102077.91
2023-02-06T04:11:58.260Z,102078.38
2023-02-06T04:14:25.913Z,102088.59
2023-02-06T04:16:53.562Z,102085.78
2023-02-06T04:19:21.159Z,102083.34
2023-02-06T04:21:49.104Z,102077.09
2023-02-06T04:24:18.056Z,102079.28
2023-02-06T04:26:45.701Z,102088.06
2023-02-06T04:29:13.340Z,102081.09
2023-02-06T04:31:41.510Z,102082.75
2023-02-06T04:34:09.319Z,102081.44
2023-02-06T04:36:37.328Z,102075.56
2023-02-06T04:39:05.578Z,102073.44
2023-02-06T04:41:35.024Z,102068.34
2023-02-06T04:44:02.692Z,102062.66
2023-02-06T04:46:30.408Z,102064.94
2023-02-06T04:48:58.053Z,102060.66
2023-02-06T04:51:25.829Z,102067.88
2023-02-06T04:53:53.468Z,102068.97
2023-02-06T04:56:21.137Z,102072.00
2023-02-06T04:58:50.105Z,102077.72
2023-02-06T05:01:18.243Z,102072.63
2023-02-06T05:03:46.411Z,102075.38
2023-02-06T05:06:14.670Z,102073.47
2023-02-06T05:08:42.321Z,102065.88
2023-02-06T05:11:10.339Z,102084.06
2023-02-06T05:13:38.022Z,102083.50
2023-02-06T05:16:08.465Z,102092.25
2023-02-06T05:18:36.595Z,102096.59
2023-02-06T05:21:05.372Z,102092.78
2023-02-06T05:23:33.334Z,102091.13
2023-02-06T05:26:01.364Z,102091.41
2023-02-06T05:28:30.170Z,102090.59
2023-02-06T05:30:58.264Z,102093.91
2023-02-06T05:33:27.840Z,102093.88
2023-02-06T05:35:55.562Z,102081.41
2023-02-06T05:38:23.173Z,102089.59
2023-02-06T05:40:52.133Z,102074.69
2023-02-06T05:43:19.852Z,102074.44
2023-02-06T05:45:47.493Z,102080.44
2023-02-06T05:48:15.341Z,102074.44
2023-02-06T05:50:44.669Z,102088.31
2023-02-06T05:53:16.011Z,102087.50
2023-02-06T05:55:43.739Z,102083.19
2023-02-06T05:58:12.603Z,102081.53
2023-02-06T06:00:40.356Z,102084.53
2023-02-06T06:03:08.049Z,102078.81
2023-02-06T06:05:36.035Z,102079.63
2023-02-06T06:08:05.718Z,102071.47
2023-02-06T06:10:33.643Z,102076.66
2023-02-06T06:13:01.268Z,102079.38
2023-02-06T06:15:29.072Z,102066.31
2023-02-06T06:17:56.703Z,102067.97
2023-02-06T06:20:24.546Z,102063.09
2023-02-06T06:22:52.213Z,102069.03
2023-02-06T06:25:21.953Z,102043.53
2023-02-06T06:27:49.582Z,102045.16
2023-02-06T06:30:17.612Z,102050.56
2023-02-06T06:32:45.234Z,102052.78
2023-02-06T06:35:12.840Z,102063.66
2023-02-06T06:37:40.487Z,102077.22
2023-02-06T06:40:08.882Z,102073.16
2023-02-06T06:42:38.441Z,102068.28
2023-02-06T06:45:07.406Z,102066.63
2023-02-06T06:47:35.103Z,102059.56
2023-02-06T06:50:02.847Z,102072.56
2023-02-06T06:52:30.745Z,102077.75
2023-02-06T06:54:58.409Z,102060.13
2023-02-06T06:57:26.124Z,102054.69
2023-02-06T06:59:55.234Z,102063.09
2023-02-06T07:02:22.890Z,102074.25
2023-02-06T07:04:50.628Z,102084.84
2023-02-06T07:07:18.333Z,102097.06
2023-02-06T07:09:47.142Z,102092.97
2023-02-06T07:12:15.624Z,102116.63
2023-02-06T07:14:43.290Z,102112.03
2023-02-06T07:17:12.290Z,102107.41
2023-02-06T07:19:40.051Z,102111.22
2023-02-06T07:22:07.719Z,102103.34
2023-02-06T07:24:35.409Z,102101.44
2023-02-06T07:27:03.073Z,102099.00
2023-02-06T07:29:30.772Z,102093.06
2023-02-06T07:31:58.793Z,102087.06
2023-02-06T07:34:27.898Z,102090.31
2023-02-06T07:36:55.562Z,102090.31
2023-02-06T07:39:23.613Z,102102.56
2023-02-06T07:41:51.256Z,102105.81
2023-02-06T07:44:21.813Z,102097.38
2023-02-06T07:46:49.870Z,102101.72
2023-02-06T07:49:17.580Z,102109.34
2023-02-06T07:51:47.750Z,102104.97
2023-02-06T07:54:16.115Z,102099.53
2023-02-06T07:56:43.920Z,102095.50
2023-02-06T07:59:11.865Z,102095.19
2023-02-06T08:01:39.480Z,102093.03
2023-02-06T08:04:07.224Z,102097.38
2023-02-06T08:06:34.920Z,102092.50
2023-02-06T08:09:05.629Z,102087.06
2023-02-06T08:11:33.897Z,102076.44
2023-02-06T08:14:02.515Z,102085.13
2023-02-06T08:16:30.314Z,102087.03
2023-02-06T08:18:57.935Z,102076.41
2023-02-06T08:21:27.530Z,102084.88
2023-02-06T08:23:56.633Z,102080.25
2023-02-06T08:26:27.422Z,102082.94
2023-02-06T08:28:56.452Z,102085.66
2023-02-06T08:31:26.627Z,102083.72
2023-02-06T08:33:55.263Z,102070.16
2023-02-06T08:36:24.431Z,102087.56
2023-02-06T08:38:53.618Z,102088.09
2023-02-06T08:41:24.539Z,102088.59
2023-02-06T08:43:55.781Z,102089.91
2023-02-06T08:46:25.300Z,102091.00
2023-02-06T08:48:57.187Z,102085.00
2023-02-06T08:51:27.824Z,102090.16
2023-02-06T08:53:57.878Z,102088.50
2023-02-06T08:56:26.286Z,102075.44
2023-02-06T08:58:55.795Z,102084.66
2023-02-06T09:01:23.910Z,102072.09
2023-02-06T09:03:55.869Z,102077.84
2023-02-06T09:06:25.432Z,102071.72
2023-02-06T09:08:54.180Z,102077.97
2023-02-06T09:11:23.701Z,102076.06
2023-02-06T09:13:52.003Z,102079.78
2023-02-06T09:16:21.907Z,102082.88
2023-02-06T09:18:52.696Z,102055.66
2023-02-06T09:21:24.492Z,102071.41
2023-02-06T09:23:54.440Z,102076.28
2023-02-06T09:26:24.974Z,102080.72
2023-02-06T09:28:53.658Z,102082.59
2023-02-06T09:31:22.693Z,102092.97
2023-02-06T09:33:50.584Z,102102.00
2023-02-06T09:36:21.077Z,102093.03
2023-02-06T09:38:53.419Z,102050.09
2023-02-06T09:41:28.234Z,102090.84
2023-02-06T09:44:00.134Z,102036.94
2023-02-06T09:46:33.144Z,102085.13
2023-02-06T09:49:07.029Z,102075.09
2023-02-06T09:51:46.373Z,102068.75
2023-02-06T09:54:22.026Z,102068.31
2023-02-06T09:56:56.393Z,102062.53
2023-02-06T09:59:30.767Z,102052.59
2023-02-06T10:02:15.891Z,102050.34
2023-02-06T10:04:51.161Z,102050.63
2023-02-06T10:07:27.765Z,102044.22
2023-02-06T10:10:00.439Z,102046.59
2023-02-06T10:12:34.774Z,102050.19
2023-02-06T10:15:05.973Z,102024.63
2023-02-06T10:17:38.124Z,102046.00
2023-02-06T10:20:12.731Z,102042.06
2023-02-06T10:22:48.551Z,102037.28
2023-02-06T10:25:23.262Z,102033.72
2023-02-06T10:27:55.850Z,102033.69
2023-02-06T10:30:34.089Z,102044.59
2023-02-06T10:33:11.820Z,102026.66
2023-02-06T10:35:55.557Z,102033.16
2023-02-06T10:38:50.838Z,102032.00
2023-02-06T10:41:32.314Z,102017.44
2023-02-06T10:44:05.276Z,102005.59
2023-02-06T10:46:41.881Z,102025.75
2023-02-06T10:49:20.020Z,102021.94
2023-02-06T10:51:52.712Z,102006.50
2023-02-06T10:54:24.063Z,102007.84
2023-02-06T10:56:53.550Z,101998.91
2023-02-06T10:59:28.054Z,102002.75
2023-02-06T11:02:05.469Z,101997.78
2023-02-06T11:04:39.637Z,101993.41
2023-02-06T11:07:14.441Z,101991.16
2023-02-06T11:09:42.153Z,102001.78
2023-02-06T11:12:24.301Z,101991.13
2023-02-06T11:14:55.515Z,101988.34
2023-02-06T11:17:28.094Z,101989.59
2023-02-06T11:20:05.207Z,101981.13
2023-02-06T11:22:38.897Z,101983.13
2023-02-06T11:25:26.552Z,101968.69
2023-02-06T11:27:54.867Z,101977.00
2023-02-06T11:30:29.432Z,101955.84
2023-02-06T11:33:04.585Z,101961.97
2023-02-06T11:35:38.839Z,101959.97
2023-02-06T11:38:14.830Z,101951.03
2023-02-06T11:40:42.860Z,101956.59
2023-02-06T11:43:18.983Z,101962.38
2023-02-06T11:45:48.168Z,101965.19
2023-02-06T11:48:37.892Z,101961.38
2023-02-06T11:51:08.960Z,101961.88
2023-02-06T11:53:37.686Z,101961.03
2023-02-06T11:56:20.734Z,101949.22
2023-02-06T11:59:02.593Z,101946.25
2023-02-06T12:01:41.789Z,101951.44
2023-02-06T12:04:23.534Z,101947.38
2023-02-06T12:06:55.660Z,101935.00
2023-02-06T12:09:23.405Z,101938.69
2023-02-06T12:11:54.584Z,101929.59
2023-02-06T12:14:29.318Z,101929.66
2023-02-06T12:16:57.575Z,101927.81
2023-02-06T12:19:31.618Z,101932.06
2023-02-06T12:22:06.903Z,101927.91
2023-02-06T12:24:39.322Z,101921.81
2023-02-06T12:27:14.776Z,101911.78
2023-02-06T12:29:45.275Z,101907.66
2023-02-06T12:32:18.771Z,101913.56
2023-02-06T12:34:53.783Z,101919.00
2023-02-06T12:37:31.476Z,101921.94
2023-02-06T12:40:00.787Z,101920.94
2023-02-06T12:42:37.818Z,101922.44
2023-02-06T12:45:16.018Z,101922.09
2023-02-06T12:47:49.298Z,101913.84
2023-02-06T12:50:21.274Z,101913.75
2023-02-06T12:52:54.689Z,101903.19
2023-02-06T12:55:28.189Z,101896.22
2023-02-06T12:57:56.968Z,101897.81
2023-02-06T13:00:47.731Z,101890.53
2023-02-06T13:03:24.791Z,101889.31
2023-02-06T13:05:55.488Z,101887.59
2023-02-06T13:08:29.481Z,101892.25
2023-02-06T13:11:04.099Z,101893.56
2023-02-06T13:13:35.096Z,101890.13
2023-02-06T13:16:03.125Z,101883.94
2023-02-06T13:19:04.301Z,101886.91
2023-02-06T13:21:35.436Z,101891.25
2023-02-06T13:24:18.065Z,101880.91
2023-02-06T13:27:03.425Z,101886.53
2023-02-06T13:29:33.362Z,101893.72
2023-02-06T13:32:47.034Z,101892.69
2023-02-06T13:35:27.532Z,101889.56
2023-02-06T13:38:25.660Z,101882.72
2023-02-06T13:41:28.688Z,101873.00
2023-02-06T13:43:59.020Z,101870.09
2023-02-06T13:46:41.545Z,101868.84
2023-02-06T13:49:33.008Z,101862.16
2023-02-06T13:52:08.314Z,101865.84
2023-02-06T13:54:56.426Z,101866.94
2023-02-06T13:57:36.462Z,101867.44
2023-02-06T14:00:14.517Z,101862.81
2023-02-06T14:02:45.316Z,101865.03
2023-02-06T14:05:16.373Z,101869.88
2023-02-06T14:08:01.912Z,101871.81
2023-02-06T14:10:51.163Z,101872.78
2023-02-06T14:13:35.029Z,101868.06
2023-02-06T14:16:19.321Z,101867.66
2023-02-06T14:18:53.136Z,101877.66
2023-02-06T14:21:32.237Z,101876.88
2023-02-06T14:24:27.583Z,101879.00
2023-02-06T14:27:15.018Z,101875.63
2023-02-06T14:29:54.084Z,101868.38
2023-02-06T14:32:36.649Z,101868.06
2023-02-06T14:35:31.781Z,101859.97
2023-02-06T14:38:14.829Z,101856.50
2023-02-06T14:40:44.926Z,101857.94
2023-02-06T14:43:18.507Z,101860.78
2023-02-06T14:46:05.327Z,101856.72
2023-02-06T14:48:38.724Z,101835.84
2023-02-06T14:51:07.862Z,101850.94
2023-02-06T14:53:37.938Z,101846.22
2023-02-06T14:56:08.198Z,101847.53
2023-02-06T14:58:36.474Z,101847.72
2023-02-06T15:01:15.822Z,101852.22
2023-02-06T15:03:44.381Z,101858.69
2023-02-06T15:06:14.854Z,101849.31
2023-02-06T15:08:49.189Z,101850.09
2023-02-06T15:11:20.536Z,101852.84
2023-02-06T15:13:51.318Z,101840.72
2023-02-06T15:16:20.680Z,101828.50
2023-02-06T15:18:48.669Z,101837.03
2023-02-06T15:21:18.488Z,101840.97
2023-02-06T15:24:03.142Z,101830.97
2023-02-06T15:26:44.492Z,101810.31
2023-02-06T15:29:18.784Z,101836.28
2023-02-06T15:31:50.765Z,101837.88
2023-02-06T15:34:20.618Z,101830.38
2023-02-06T15:36:48.600Z,101838.44
2023-02-06T15:39:17.494Z,101830.03
2023-02-06T15:41:47.529Z,101828.22
2023-02-06T15:44:24.658Z,101831.94
2023-02-06T15:46:55.590Z,101830.69
2023-02-06T15:49:35.963Z,101824.81
2023-02-06T15:52:04.076Z,101831.47
2023-02-06T15:54:32.124Z,101832.03
2023-02-06T15:57:04.661Z,101833.66
2023-02-06T15:59:36.869Z,101838.91
2023-02-06T16:02:06.879Z,101846.94
2023-02-06T16:04:37.847Z,101846.34
2023-02-06T16:07:13.095Z,101851.72
2023-02-06T16:09:44.218Z,101829.25
2023-02-06T16:12:12.411Z,101840.00
2023-02-06T16:14:41.803Z,101847.59
2023-02-06T16:17:29.239Z,101849.81
2023-02-06T16:19:59.950Z,101786.19
2023-02-06T16:22:30.127Z,101848.41
2023-02-06T16:25:15.948Z,101850.41
2023-02-06T16:27:46.169Z,101848.34
2023-02-06T16:30:24.646Z,101852.25
2023-02-06T16:32:55.474Z,101856.19
2023-02-06T16:35:23.873Z,101865.63
2023-02-06T16:37:53.804Z,101874.03
2023-02-06T16:40:22.102Z,101861.34
2023-02-06T16:42:50.140Z,101865.72
2023-02-06T16:45:20.245Z,101872.34
2023-02-06T16:47:48.358Z,101855.81
2023-02-06T16:50:18.557Z,101871.69
2023-02-06T16:52:49.529Z,101876.22
2023-02-06T16:55:20.400Z,101893.63
2023-02-06T16:57:53.185Z,101882.16
2023-02-06T17:00:23.208Z,101878.38
2023-02-06T17:02:52.860Z,101845.38
2023-02-06T17:05:23.185Z,101886.38
2023-02-06T17:07:50.995Z,101885.47
2023-02-06T17:10:21.270Z,101885.97
2023-02-06T17:12:49.011Z,101889.28
2023-02-06T17:15:18.137Z,101897.13
2023-02-06T17:17:46.464Z,101899.66
2023-02-06T17:20:25.371Z,101895.44
2023-02-06T17:22:53.028Z,101900.00
2023-02-06T17:25:20.647Z,101892.81
2023-02-06T17:27:48.333Z,101895.81
2023-02-06T17:30:18.575Z,101899.53
2023-02-06T17:32:46.361Z,101903.72
2023-02-06T17:35:15.014Z,101899.66
2023-02-06T17:37:44.052Z,101910.59
2023-02-06T17:40:18.973Z,101904.06
2023-02-06T17:42:46.709Z,101895.16
2023-02-06T17:45:14.808Z,101876.72
2023-02-06T17:47:42.623Z,101875.09
2023-02-06T17:50:13.870Z,101873.44
2023-02-06T17:52:41.574Z,101869.72
2023-02-06T17:55:11.035Z,101868.13
2023-02-06T17:57:39.398Z,101875.72
2023-02-06T18:00:10.578Z,101871.41
2023-02-06T18:02:38.611Z,101872.25
2023-02-06T18:05:07.156Z,101864.94
2023-02-06T18:07:34.920Z,101862.22
2023-02-06T18:10:02.586Z,101867.94
2023-02-06T18:12:31.610Z,101806.09
2023-02-06T18:14:59.502Z,101853.81
2023-02-06T18:17:27.426Z,101834.56
2023-02-06T18:19:55.100Z,101854.66
2023-02-06T18:22:23.163Z,101854.38
2023-02-06T18:24:51.594Z,101848.13
2023-02-06T18:27:21.201Z,101843.25
2023-02-06T18:29:54.816Z,101850.03
2023-02-06T18:32:22.545Z,101849.75
2023-02-06T18:34:50.250Z,101850.00
2023-02-06T18:37:17.909Z,101839.16
2023-02-06T18:39:45.593Z,101812.50
2023-02-06T18:42:31.018Z,101846.69
2023-02-06T18:45:00.498Z,101851.22
2023-02-06T18:47:28.875Z,101856.63
2023-02-06T18:49:56.535Z,101858.78
2023-02-06T18:52:24.225Z,101863.59
2023-02-06T18:54:51.900Z,101863.84
2023-02-06T18:57:19.665Z,101859.78
2023-02-06T18:59:47.354Z,101847.59
2023-02-06T19:02:16.578Z,101861.94
2023-02-06T19:04:44.380Z,101847.03
2023-02-06T19:07:12.316Z,101857.31
2023-02-06T19:09:40.436Z,101862.69
2023-02-06T19:12:08.433Z,101805.66
2023-02-06T19:14:36.118Z,101854.59
2023-02-06T19:17:03.755Z,101854.31
2023-02-06T19:19:32.841Z,101859.09
2023-02-06T19:22:00.554Z,101861.91
2023-02-06T19:24:30.540Z,101865.72
2023-02-06T19:26:58.570Z,101881.91
2023-02-06T19:29:35.069Z,101881.00
2023-02-06T19:32:03.718Z,101898.34
2023-02-06T19:34:35.907Z,101885.00
2023-02-06T19:37:03.789Z,101878.19
2023-02-06T19:39:33.951Z,101887.16
2023-02-06T19:42:01.891Z,101899.38
2023-02-06T19:44:29.600Z,101891.50
2023-02-06T19:46:57.812Z,101896.72
2023-02-06T19:49:26.164Z,101903.25
2023-02-06T19:51:55.192Z,101898.66
2023-02-06T19:54:23.047Z,101901.13
2023-02-06T19:56:50.688Z,101911.75
2023-02-06T19:59:19.849Z,101918.75
2023-02-06T20:01:49.184Z,101922.09
2023-02-06T20:04:17.627Z,101902.56
2023-02-06T20:06:46.418Z,101913.69
2023-02-06T20:09:16.594Z,101910.22
2023-02-06T20:11:45.098Z,101908.31
2023-02-06T20:14:13.138Z,101912.69
2023-02-06T20:16:42.834Z,101916.22
2023-02-06T20:19:13.100Z,101922.69
2023-02-06T20:21:43.612Z,101933.25
2023-02-06T20:24:13.610Z,101925.94
2023-02-06T20:26:43.599Z,101926.19
2023-02-06T20:29:24.005Z,101924.84
2023-02-06T20:31:52.348Z,101919.19
2023-02-06T20:34:21.659Z,101921.03
2023-02-06T20:36:49.772Z,101922.91
2023-02-06T20:39:18.161Z,101920.44
2023-02-06T20:41:49.464Z,101920.69
2023-02-06T20:44:17.606Z,101913.63
2023-02-06T20:46:45.587Z,101910.66
2023-02-06T20:49:16.122Z,101910.91
2023-02-06T20:51:44.077Z,101908.72
2023-02-06T20:54:12.515Z,101919.28
2023-02-06T20:56:40.901Z,101926.63
2023-02-06T20:59:12.953Z,101922.25
2023-02-06T21:01:41.201Z,101921.34
2023-02-06T21:04:11.235Z,101930.31
2023-02-06T21:06:40.054Z,101918.19
2023-02-06T21:09:09.448Z,101914.88
2023-02-06T21:11:39.644Z,101910.84
2023-02-06T21:14:08.397Z,101920.03
2023-02-06T21:16:38.650Z,101918.38
2023-02-06T21:19:08.031Z,101922.84
2023-02-06T21:21:37.172Z,101907.91
2023-02-06T21:24:06.007Z,101913.94
2023-02-06T21:26:34.164Z,101910.13
2023-02-06T21:29:02.662Z,101910.19
2023-02-06T21:31:36.881Z,101900.47
2023-02-06T21:34:09.104Z,101910.19
2023-02-06T21:36:39.498Z,101912.41
2023-02-06T21:39:08.616Z,101899.16
2023-02-06T21:41:36.618Z,101911.66
2023-02-06T21:44:05.017Z,101904.84
2023-02-06T21:46:33.353Z,101902.69
2023-02-06T21:49:01.151Z,101894.59
2023-02-06T21:51:31.307Z,101903.91
2023-02-06T21:53:59.342Z,101903.31
2023-02-06T21:56:29.111Z,101896.25
2023-02-06T21:58:57.427Z,101894.59
2023-02-06T22:01:27.117Z,101894.00
2023-02-06T22:03:56.788Z,101891.84
2023-02-06T22:06:24.876Z,101877.50
2023-02-06T22:08:55.860Z,101881.06
2023-02-06T22:11:25.953Z,101882.31
2023-02-06T22:13:57.629Z,101888.63
2023-02-06T22:16:26.156Z,101876.75
2023-02-06T22:18:54.272Z,101890.25
2023-02-06T22:21:24.096Z,101868.56
2023-02-06T22:23:53.807Z,101891.56
2023-02-06T22:26:22.482Z,101862.81
2023-02-06T22:28:50.930Z,101889.47
2023-02-06T22:31:21.126Z,101890.25
2023-02-06T22:33:49.255Z,101891.59
2023-02-06T22:36:19.995Z,101894.59
2023-02-06T22:38:48.987Z,101875.97
2023-02-06T22:41:18.051Z,101876.81
2023-02-06T22:43:46.907Z,101875.19
2023-02-06T22:46:20.087Z,101876.81
2023-02-06T22:48:48.436Z,101888.22
2023-02-06T22:51:16.731Z,101890.91
2023-02-06T22:53:44.673Z,101895.25
2023-02-06T22:56:35.990Z,101887.66
2023-02-06T22:59:07.137Z,101892.03
2023-02-06T23:01:36.472Z,101886.88
2023-02-06T23:04:06.481Z,101883.28
2023-02-06T23:06:36.816Z,101883.34
2023-02-06T23:09:07.156Z,101877.91
2023-02-06T23:11:35.514Z,101883.59
2023-02-06T23:14:06.633Z,101880.09
2023-02-06T23:16:35.685Z,101873.59
2023-02-06T23:19:05.636Z,101869.25
2023-02-06T23:21:35.701Z,101847.50
2023-02-06T23:24:04.368Z,101893.06
2023-02-06T23:26:33.020Z,101888.22
2023-02-06T23:29:02.827Z,101902.03
2023-02-06T23:31:32.351Z,101887.97
2023-02-06T23:34:00.601Z,101877.63
2023-02-06T23:36:29.525Z,101883.31
2023-02-06T23:38:57.306Z,101890.91
2023-02-06T23:41:26.885Z,101877.09
2023-02-06T23:43:56.915Z,101886.00
2023-02-06T23:46:24.918Z,101890.38
2023-02-06T23:48:54.793Z,101874.38
2023-02-06T23:51:23.144Z,101899.34
2023-02-06T23:53:50.823Z,101907.47
2023-02-06T23:56:22.586Z,101907.72
2023-02-06T23:58:50.622Z,101896.34
